sensor_id;sensor_type;location;lat;lon;timestamp;P1;durP1;ratioP1;P2;durP2;ratioP2
84371;SDS011;74561;50.380;7.626;2024-03-23T00:53:05;36.85;;;15.63;;
84371;SDS011;74561;50.380;7.626;2024-03-23T00:55:31;37.25;;;15.55;;
84371;SDS011;74561;50.380;7.626;2024-03-23T00:57:57;36.83;;;15.63;;
84371;SDS011;74561;50.380;7.626;2024-03-23T01:00:22;35.87;;;15.30;;
84371;SDS011;74561;50.380;7.626;2024-03-23T01:02:47;35.33;;;15.87;;
84371;SDS011;74561;50.380;7.626;2024-03-23T01:05:13;34.90;;;15.43;;
84371;SDS011;74561;50.380;7.626;2024-03-23T01:07:38;37.58;;;15.98;;
84371;SDS011;74561;50.380;7.626;2024-03-23T01:10:03;32.10;;;15.17;;
84371;SDS011;74561;50.380;7.626;2024-03-23T01:12:29;35.70;;;15.68;;
84371;SDS011;74561;50.380;7.626;2024-03-23T01:14:54;34.53;;;15.13;;
84371;SDS011;74561;50.380;7.626;2024-03-23T01:17:20;34.10;;;16.00;;
84371;SDS011;74561;50.380;7.626;2024-03-23T01:19:45;33.43;;;15.10;;
84371;SDS011;74561;50.380;7.626;2024-03-23T01:22:10;28.50;;;13.50;;
84371;SDS011;74561;50.380;7.626;2024-03-23T01:24:37;27.38;;;13.45;;
84371;SDS011;74561;50.380;7.626;2024-03-23T01:27:03;34.70;;;15.07;;
84371;SDS011;74561;50.380;7.626;2024-03-23T01:29:28;41.67;;;16.48;;
84371;SDS011;74561;50.380;7.626;2024-03-23T01:31:53;41.23;;;17.10;;
84371;SDS011;74561;50.380;7.626;2024-03-23T01:34:19;39.77;;;17.27;;
84371;SDS011;74561;50.380;7.626;2024-03-23T01:36:45;39.55;;;17.17;;
84371;SDS011;74561;50.380;7.626;2024-03-23T01:39:11;45.92;;;20.20;;
84371;SDS011;74561;50.380;7.626;2024-03-23T01:41:36;43.78;;;18.98;;
84371;SDS011;74561;50.380;7.626;2024-03-23T01:44:05;38.60;;;17.45;;
84371;SDS011;74561;50.380;7.626;2024-03-23T01:46:32;30.05;;;14.25;;
84371;SDS011;74561;50.380;7.626;2024-03-23T01:48:57;22.92;;;12.13;;
84371;SDS011;74561;50.380;7.626;2024-03-23T01:51:23;19.63;;;11.15;;
84371;SDS011;74561;50.380;7.626;2024-03-23T01:53:49;20.23;;;11.40;;
84371;SDS011;74561;50.380;7.626;2024-03-23T01:56:14;19.10;;;10.57;;
84371;SDS011;74561;50.380;7.626;2024-03-23T01:58:40;14.88;;;6.95;;
84371;SDS011;74561;50.380;7.626;2024-03-23T02:01:05;12.83;;;6.73;;
84371;SDS011;74561;50.380;7.626;2024-03-23T02:03:34;10.70;;;4.90;;
84371;SDS011;74561;50.380;7.626;2024-03-23T02:05:59;7.88;;;4.60;;
84371;SDS011;74561;50.380;7.626;2024-03-23T02:08:24;7.80;;;4.03;;
84371;SDS011;74561;50.380;7.626;2024-03-23T02:10:50;9.13;;;4.40;;
84371;SDS011;74561;50.380;7.626;2024-03-23T02:13:16;5.30;;;2.63;;
84371;SDS011;74561;50.380;7.626;2024-03-23T02:15:42;4.32;;;1.83;;
84371;SDS011;74561;50.380;7.626;2024-03-23T02:18:08;4.10;;;1.92;;
84371;SDS011;74561;50.380;7.626;2024-03-23T02:20:34;4.40;;;1.90;;
84371;SDS011;74561;50.380;7.626;2024-03-23T02:22:59;2.97;;;1.77;;
84371;SDS011;74561;50.380;7.626;2024-03-23T02:25:25;3.17;;;1.90;;
84371;SDS011;74561;50.380;7.626;2024-03-23T02:27:50;3.17;;;1.80;;
84371;SDS011;74561;50.380;7.626;2024-03-23T02:30:16;3.25;;;1.90;;
84371;SDS011;74561;50.380;7.626;2024-03-23T02:32:41;4.37;;;2.10;;
84371;SDS011;74561;50.380;7.626;2024-03-23T02:35:06;3.30;;;2.07;;
84371;SDS011;74561;50.380;7.626;2024-03-23T02:37:32;3.23;;;2.13;;
84371;SDS011;74561;50.380;7.626;2024-03-23T02:39:57;4.43;;;2.67;;
84371;SDS011;74561;50.380;7.626;2024-03-23T02:42:23;5.88;;;2.80;;
84371;SDS011;74561;50.380;7.626;2024-03-23T02:44:48;4.33;;;2.43;;
84371;SDS011;74561;50.380;7.626;2024-03-23T02:47:14;4.85;;;2.83;;
84371;SDS011;74561;50.380;7.626;2024-03-23T02:49:39;5.27;;;3.13;;
84371;SDS011;74561;50.380;7.626;2024-03-23T02:52:04;4.93;;;2.93;;
84371;SDS011;74561;50.380;7.626;2024-03-23T02:54:30;5.70;;;3.60;;
84371;SDS011;74561;50.380;7.626;2024-03-23T02:56:55;6.70;;;3.50;;
84371;SDS011;74561;50.380;7.626;2024-03-23T02:59:20;5.27;;;3.20;;
84371;SDS011;74561;50.380;7.626;2024-03-23T03:01:46;5.17;;;3.07;;
84371;SDS011;74561;50.380;7.626;2024-03-23T03:04:11;6.27;;;3.30;;
84371;SDS011;74561;50.380;7.626;2024-03-23T03:06:36;5.13;;;2.63;;
84371;SDS011;74561;50.380;7.626;2024-03-23T03:09:02;5.57;;;2.90;;
84371;SDS011;74561;50.380;7.626;2024-03-23T03:11:27;5.83;;;2.93;;
84371;SDS011;74561;50.380;7.626;2024-03-23T03:13:53;5.47;;;3.03;;
84371;SDS011;74561;50.380;7.626;2024-03-23T03:16:18;6.40;;;3.27;;
84371;SDS011;74561;50.380;7.626;2024-03-23T03:18:43;6.45;;;3.33;;
84371;SDS011;74561;50.380;7.626;2024-03-23T03:21:11;5.72;;;3.35;;
84371;SDS011;74561;50.380;7.626;2024-03-23T03:23:39;5.97;;;3.70;;
84371;SDS011;74561;50.380;7.626;2024-03-23T03:26:05;7.97;;;3.92;;
84371;SDS011;74561;50.380;7.626;2024-03-23T03:28:31;8.73;;;4.32;;
84371;SDS011;74561;50.380;7.626;2024-03-23T03:30:57;6.78;;;3.30;;
84371;SDS011;74561;50.380;7.626;2024-03-23T03:33:23;6.72;;;3.50;;
84371;SDS011;74561;50.380;7.626;2024-03-23T03:35:49;6.20;;;3.20;;
84371;SDS011;74561;50.380;7.626;2024-03-23T03:38:14;8.40;;;3.80;;
84371;SDS011;74561;50.380;7.626;2024-03-23T03:40:39;7.23;;;3.20;;
84371;SDS011;74561;50.380;7.626;2024-03-23T03:43:06;5.50;;;2.97;;
84371;SDS011;74561;50.380;7.626;2024-03-23T03:45:32;5.63;;;3.00;;
84371;SDS011;74561;50.380;7.626;2024-03-23T03:47:57;6.23;;;2.93;;
84371;SDS011;74561;50.380;7.626;2024-03-23T03:50:24;4.97;;;2.80;;
84371;SDS011;74561;50.380;7.626;2024-03-23T03:52:49;5.93;;;3.10;;
84371;SDS011;74561;50.380;7.626;2024-03-23T03:55:15;6.63;;;2.90;;
84371;SDS011;74561;50.380;7.626;2024-03-23T03:57:41;5.97;;;3.15;;
84371;SDS011;74561;50.380;7.626;2024-03-23T04:00:07;6.57;;;3.35;;
84371;SDS011;74561;50.380;7.626;2024-03-23T04:02:36;5.28;;;2.70;;
84371;SDS011;74561;50.380;7.626;2024-03-23T04:05:02;6.75;;;2.45;;
84371;SDS011;74561;50.380;7.626;2024-03-23T04:07:28;4.88;;;2.55;;
84371;SDS011;74561;50.380;7.626;2024-03-23T04:09:53;4.07;;;2.55;;
84371;SDS011;74561;50.380;7.626;2024-03-23T04:12:19;4.68;;;2.67;;
84371;SDS011;74561;50.380;7.626;2024-03-23T04:14:45;6.55;;;2.58;;
84371;SDS011;74561;50.380;7.626;2024-03-23T04:17:10;3.70;;;2.20;;
84371;SDS011;74561;50.380;7.626;2024-03-23T04:19:35;2.60;;;1.67;;
84371;SDS011;74561;50.380;7.626;2024-03-23T04:22:01;3.27;;;1.87;;
84371;SDS011;74561;50.380;7.626;2024-03-23T04:24:26;4.77;;;2.00;;
84371;SDS011;74561;50.380;7.626;2024-03-23T04:26:51;3.47;;;1.97;;
84371;SDS011;74561;50.380;7.626;2024-03-23T04:29:17;4.32;;;2.30;;
84371;SDS011;74561;50.380;7.626;2024-03-23T04:31:42;4.60;;;2.38;;
84371;SDS011;74561;50.380;7.626;2024-03-23T04:34:08;3.70;;;2.40;;
84371;SDS011;74561;50.380;7.626;2024-03-23T04:36:33;3.83;;;2.33;;
84371;SDS011;74561;50.380;7.626;2024-03-23T04:38:59;4.77;;;2.60;;
84371;SDS011;74561;50.380;7.626;2024-03-23T04:41:25;3.50;;;2.28;;
84371;SDS011;74561;50.380;7.626;2024-03-23T04:43:50;4.25;;;2.40;;
84371;SDS011;74561;50.380;7.626;2024-03-23T04:46:18;4.72;;;2.65;;
84371;SDS011;74561;50.380;7.626;2024-03-23T04:48:43;4.50;;;2.55;;
84371;SDS011;74561;50.380;7.626;2024-03-23T04:51:19;4.47;;;2.25;;
84371;SDS011;74561;50.380;7.626;2024-03-23T04:53:46;4.30;;;2.40;;
84371;SDS011;74561;50.380;7.626;2024-03-23T04:56:13;3.45;;;2.00;;
84371;SDS011;74561;50.380;7.626;2024-03-23T04:58:38;3.70;;;2.13;;
84371;SDS011;74561;50.380;7.626;2024-03-23T05:01:03;3.95;;;2.13;;
84371;SDS011;74561;50.380;7.626;2024-03-23T05:03:29;3.10;;;2.10;;
84371;SDS011;74561;50.380;7.626;2024-03-23T05:05:54;2.60;;;1.63;;
84371;SDS011;74561;50.380;7.626;2024-03-23T05:08:19;3.73;;;2.07;;
84371;SDS011;74561;50.380;7.626;2024-03-23T05:10:45;3.03;;;1.90;;
84371;SDS011;74561;50.380;7.626;2024-03-23T05:13:10;3.22;;;2.20;;
84371;SDS011;74561;50.380;7.626;2024-03-23T05:15:36;4.93;;;2.30;;
84371;SDS011;74561;50.380;7.626;2024-03-23T05:18:02;3.08;;;2.17;;
84371;SDS011;74561;50.380;7.626;2024-03-23T05:20:28;3.92;;;2.20;;
84371;SDS011;74561;50.380;7.626;2024-03-23T05:22:54;7.72;;;4.00;;
84371;SDS011;74561;50.380;7.626;2024-03-23T05:25:20;6.28;;;2.75;;
84371;SDS011;74561;50.380;7.626;2024-03-23T05:27:45;4.77;;;2.20;;
84371;SDS011;74561;50.380;7.626;2024-03-23T05:30:11;7.47;;;2.70;;
84371;SDS011;74561;50.380;7.626;2024-03-23T05:32:36;4.07;;;2.60;;
84371;SDS011;74561;50.380;7.626;2024-03-23T05:35:01;5.13;;;2.70;;
84371;SDS011;74561;50.380;7.626;2024-03-23T05:37:27;8.52;;;4.22;;
84371;SDS011;74561;50.380;7.626;2024-03-23T05:39:52;6.33;;;2.70;;
84371;SDS011;74561;50.380;7.626;2024-03-23T05:42:18;6.03;;;2.53;;
84371;SDS011;74561;50.380;7.626;2024-03-23T05:44:46;5.75;;;2.50;;
84371;SDS011;74561;50.380;7.626;2024-03-23T05:47:12;6.68;;;2.88;;
84371;SDS011;74561;50.380;7.626;2024-03-23T05:49:41;6.75;;;2.75;;
84371;SDS011;74561;50.380;7.626;2024-03-23T05:52:07;3.90;;;2.47;;
84371;SDS011;74561;50.380;7.626;2024-03-23T05:54:33;4.93;;;2.30;;
84371;SDS011;74561;50.380;7.626;2024-03-23T05:56:58;6.87;;;2.30;;
84371;SDS011;74561;50.380;7.626;2024-03-23T05:59:24;7.82;;;2.90;;
84371;SDS011;74561;50.380;7.626;2024-03-23T06:01:49;8.57;;;2.90;;
84371;SDS011;74561;50.380;7.626;2024-03-23T06:04:15;6.22;;;2.92;;
84371;SDS011;74561;50.380;7.626;2024-03-23T06:06:40;9.67;;;2.93;;
84371;SDS011;74561;50.380;7.626;2024-03-23T06:09:05;5.63;;;2.70;;
84371;SDS011;74561;50.380;7.626;2024-03-23T06:11:31;5.47;;;2.83;;
84371;SDS011;74561;50.380;7.626;2024-03-23T06:13:56;6.30;;;3.30;;
84371;SDS011;74561;50.380;7.626;2024-03-23T06:16:21;6.20;;;3.20;;
84371;SDS011;74561;50.380;7.626;2024-03-23T06:18:52;4.95;;;2.90;;
84371;SDS011;74561;50.380;7.626;2024-03-23T06:21:19;7.47;;;3.45;;
84371;SDS011;74561;50.380;7.626;2024-03-23T06:23:45;8.27;;;3.55;;
84371;SDS011;74561;50.380;7.626;2024-03-23T06:26:16;8.32;;;3.95;;
84371;SDS011;74561;50.380;7.626;2024-03-23T06:28:42;8.35;;;5.13;;
84371;SDS011;74561;50.380;7.626;2024-03-23T06:31:11;8.23;;;4.25;;
84371;SDS011;74561;50.380;7.626;2024-03-23T06:33:37;5.70;;;3.60;;
84371;SDS011;74561;50.380;7.626;2024-03-23T06:36:03;10.07;;;3.90;;
84371;SDS011;74561;50.380;7.626;2024-03-23T06:38:29;8.43;;;3.85;;
84371;SDS011;74561;50.380;7.626;2024-03-23T06:40:54;8.07;;;3.53;;
84371;SDS011;74561;50.380;7.626;2024-03-23T06:43:20;6.75;;;3.42;;
84371;SDS011;74561;50.380;7.626;2024-03-23T06:45:52;9.43;;;3.30;;
84371;SDS011;74561;50.380;7.626;2024-03-23T06:48:20;5.93;;;3.15;;
84371;SDS011;74561;50.380;7.626;2024-03-23T06:50:45;8.63;;;3.90;;
84371;SDS011;74561;50.380;7.626;2024-03-23T06:53:11;10.15;;;3.60;;
84371;SDS011;74561;50.380;7.626;2024-03-23T06:55:40;8.43;;;3.60;;
84371;SDS011;74561;50.380;7.626;2024-03-23T06:58:05;6.82;;;4.13;;
84371;SDS011;74561;50.380;7.626;2024-03-23T07:00:31;14.00;;;4.03;;
84371;SDS011;74561;50.380;7.626;2024-03-23T07:02:57;11.48;;;4.20;;
84371;SDS011;74561;50.380;7.626;2024-03-23T07:05:22;9.77;;;4.22;;
84371;SDS011;74561;50.380;7.626;2024-03-23T07:07:48;9.77;;;3.73;;
84371;SDS011;74561;50.380;7.626;2024-03-23T07:10:13;8.47;;;3.70;;
84371;SDS011;74561;50.380;7.626;2024-03-23T07:12:38;11.07;;;3.70;;
84371;SDS011;74561;50.380;7.626;2024-03-23T07:15:04;13.50;;;4.32;;
84371;SDS011;74561;50.380;7.626;2024-03-23T07:17:29;8.63;;;3.28;;
84371;SDS011;74561;50.380;7.626;2024-03-23T07:19:55;11.40;;;3.28;;
84371;SDS011;74561;50.380;7.626;2024-03-23T07:22:20;7.28;;;3.20;;
84371;SDS011;74561;50.380;7.626;2024-03-23T07:24:46;7.47;;;3.38;;
84371;SDS011;74561;50.380;7.626;2024-03-23T07:27:11;11.23;;;3.20;;
84371;SDS011;74561;50.380;7.626;2024-03-23T07:29:37;11.07;;;2.70;;
84371;SDS011;74561;50.380;7.626;2024-03-23T07:32:02;8.47;;;3.17;;
84371;SDS011;74561;50.380;7.626;2024-03-23T07:34:27;9.43;;;2.85;;
84371;SDS011;74561;50.380;7.626;2024-03-23T07:36:53;11.33;;;3.80;;
84371;SDS011;74561;50.380;7.626;2024-03-23T07:39:18;5.67;;;2.60;;
84371;SDS011;74561;50.380;7.626;2024-03-23T07:41:46;10.53;;;3.10;;
84371;SDS011;74561;50.380;7.626;2024-03-23T07:44:12;6.90;;;3.30;;
84371;SDS011;74561;50.380;7.626;2024-03-23T07:46:37;10.50;;;3.43;;
84371;SDS011;74561;50.380;7.626;2024-03-23T07:49:06;8.80;;;3.45;;
84371;SDS011;74561;50.380;7.626;2024-03-23T07:51:31;7.22;;;3.28;;
84371;SDS011;74561;50.380;7.626;2024-03-23T07:53:57;8.65;;;3.40;;
84371;SDS011;74561;50.380;7.626;2024-03-23T07:56:23;11.55;;;3.53;;
84371;SDS011;74561;50.380;7.626;2024-03-23T07:58:50;9.00;;;3.67;;
84371;SDS011;74561;50.380;7.626;2024-03-23T08:01:17;9.20;;;3.60;;
84371;SDS011;74561;50.380;7.626;2024-03-23T08:03:43;9.10;;;3.40;;
84371;SDS011;74561;50.380;7.626;2024-03-23T08:06:09;8.63;;;3.63;;
84371;SDS011;74561;50.380;7.626;2024-03-23T08:08:38;10.40;;;3.95;;
84371;SDS011;74561;50.380;7.626;2024-03-23T08:11:04;10.07;;;3.95;;
84371;SDS011;74561;50.380;7.626;2024-03-23T08:13:30;11.13;;;3.78;;
84371;SDS011;74561;50.380;7.626;2024-03-23T08:15:56;11.80;;;3.67;;
84371;SDS011;74561;50.380;7.626;2024-03-23T08:18:24;9.70;;;3.63;;
84371;SDS011;74561;50.380;7.626;2024-03-23T08:20:59;5.80;;;3.43;;
84371;SDS011;74561;50.380;7.626;2024-03-23T08:23:29;6.15;;;3.20;;
84371;SDS011;74561;50.380;7.626;2024-03-23T08:25:58;7.00;;;3.20;;
84371;SDS011;74561;50.380;7.626;2024-03-23T08:28:24;7.20;;;3.50;;
84371;SDS011;74561;50.380;7.626;2024-03-23T08:30:50;10.00;;;3.40;;
84371;SDS011;74561;50.380;7.626;2024-03-23T08:33:16;6.05;;;3.00;;
84371;SDS011;74561;50.380;7.626;2024-03-23T08:35:41;10.98;;;3.15;;
84371;SDS011;74561;50.380;7.626;2024-03-23T08:38:07;12.85;;;3.28;;
84371;SDS011;74561;50.380;7.626;2024-03-23T08:40:32;8.23;;;3.53;;
84371;SDS011;74561;50.380;7.626;2024-03-23T08:42:57;8.05;;;5.00;;
84371;SDS011;74561;50.380;7.626;2024-03-23T08:45:24;10.43;;;3.43;;
84371;SDS011;74561;50.380;7.626;2024-03-23T08:47:50;7.18;;;3.40;;
84371;SDS011;74561;50.380;7.626;2024-03-23T08:50:15;5.27;;;2.50;;
84371;SDS011;74561;50.380;7.626;2024-03-23T08:52:41;6.70;;;2.53;;
84371;SDS011;74561;50.380;7.626;2024-03-23T08:55:06;6.40;;;2.38;;
84371;SDS011;74561;50.380;7.626;2024-03-23T08:57:32;8.88;;;2.75;;
84371;SDS011;74561;50.380;7.626;2024-03-23T08:59:57;5.60;;;2.92;;
84371;SDS011;74561;50.380;7.626;2024-03-23T09:02:23;7.60;;;2.80;;
84371;SDS011;74561;50.380;7.626;2024-03-23T09:04:48;7.07;;;2.60;;
84371;SDS011;74561;50.380;7.626;2024-03-23T09:07:13;6.03;;;2.17;;
84371;SDS011;74561;50.380;7.626;2024-03-23T09:09:39;4.03;;;1.97;;
84371;SDS011;74561;50.380;7.626;2024-03-23T09:12:05;4.75;;;1.73;;
84371;SDS011;74561;50.380;7.626;2024-03-23T09:14:30;7.72;;;2.22;;
84371;SDS011;74561;50.380;7.626;2024-03-23T09:16:56;6.47;;;2.37;;
84371;SDS011;74561;50.380;7.626;2024-03-23T09:19:21;5.87;;;2.10;;
84371;SDS011;74561;50.380;7.626;2024-03-23T09:21:46;6.13;;;2.13;;
84371;SDS011;74561;50.380;7.626;2024-03-23T09:24:12;4.37;;;2.40;;
84371;SDS011;74561;50.380;7.626;2024-03-23T09:26:37;5.97;;;2.67;;
84371;SDS011;74561;50.380;7.626;2024-03-23T09:29:02;7.80;;;2.40;;
84371;SDS011;74561;50.380;7.626;2024-03-23T09:31:28;8.05;;;2.58;;
84371;SDS011;74561;50.380;7.626;2024-03-23T09:33:54;9.18;;;2.80;;
84371;SDS011;74561;50.380;7.626;2024-03-23T09:36:20;6.30;;;2.60;;
84371;SDS011;74561;50.380;7.626;2024-03-23T09:38:45;8.43;;;2.58;;
84371;SDS011;74561;50.380;7.626;2024-03-23T09:41:10;9.40;;;2.47;;
84371;SDS011;74561;50.380;7.626;2024-03-23T09:43:36;6.47;;;2.63;;
84371;SDS011;74561;50.380;7.626;2024-03-23T09:46:02;10.97;;;2.70;;
84371;SDS011;74561;50.380;7.626;2024-03-23T09:48:28;5.93;;;2.60;;
84371;SDS011;74561;50.380;7.626;2024-03-23T09:50:53;7.10;;;2.50;;
84371;SDS011;74561;50.380;7.626;2024-03-23T09:53:18;7.63;;;2.50;;
84371;SDS011;74561;50.380;7.626;2024-03-23T09:55:44;7.53;;;2.77;;
84371;SDS011;74561;50.380;7.626;2024-03-23T09:58:13;6.43;;;2.20;;
84371;SDS011;74561;50.380;7.626;2024-03-23T10:03:07;6.25;;;2.45;;
84371;SDS011;74561;50.380;7.626;2024-03-23T10:05:33;5.15;;;2.45;;
84371;SDS011;74561;50.380;7.626;2024-03-23T10:07:59;6.10;;;2.58;;
84371;SDS011;74561;50.380;7.626;2024-03-23T10:10:25;7.18;;;2.15;;
84371;SDS011;74561;50.380;7.626;2024-03-23T10:12:51;6.55;;;2.42;;
84371;SDS011;74561;50.380;7.626;2024-03-23T10:15:20;6.13;;;2.63;;
84371;SDS011;74561;50.380;7.626;2024-03-23T10:20:12;6.30;;;2.25;;
84371;SDS011;74561;50.380;7.626;2024-03-23T10:22:38;4.30;;;2.17;;
84371;SDS011;74561;50.380;7.626;2024-03-23T10:25:07;6.45;;;2.72;;
84371;SDS011;74561;50.380;7.626;2024-03-23T10:27:33;5.53;;;2.97;;
84371;SDS011;74561;50.380;7.626;2024-03-23T10:30:07;6.40;;;2.30;;
84371;SDS011;74561;50.380;7.626;2024-03-23T10:32:36;5.63;;;2.40;;
84371;SDS011;74561;50.380;7.626;2024-03-23T10:35:17;7.00;;;2.35;;
84371;SDS011;74561;50.380;7.626;2024-03-23T10:37:45;5.38;;;2.15;;
84371;SDS011;74561;50.380;7.626;2024-03-23T10:40:14;5.57;;;2.38;;
84371;SDS011;74561;50.380;7.626;2024-03-23T10:42:40;4.13;;;2.03;;
84371;SDS011;74561;50.380;7.626;2024-03-23T10:45:06;7.55;;;2.88;;
84371;SDS011;74561;50.380;7.626;2024-03-23T10:47:33;5.25;;;2.30;;
84371;SDS011;74561;50.380;7.626;2024-03-23T10:49:59;4.72;;;2.20;;
84371;SDS011;74561;50.380;7.626;2024-03-23T10:52:24;6.30;;;2.23;;
84371;SDS011;74561;50.380;7.626;2024-03-23T10:54:53;4.93;;;2.20;;
84371;SDS011;74561;50.380;7.626;2024-03-23T10:57:20;6.38;;;2.72;;
84371;SDS011;74561;50.380;7.626;2024-03-23T10:59:47;7.18;;;3.05;;
84371;SDS011;74561;50.380;7.626;2024-03-23T11:02:19;6.28;;;2.40;;
84371;SDS011;74561;50.380;7.626;2024-03-23T11:04:45;7.97;;;2.55;;
84371;SDS011;74561;50.380;7.626;2024-03-23T11:09:53;5.88;;;2.58;;
84371;SDS011;74561;50.380;7.626;2024-03-23T11:14:57;6.72;;;2.47;;
84371;SDS011;74561;50.380;7.626;2024-03-23T11:17:24;4.78;;;1.83;;
84371;SDS011;74561;50.380;7.626;2024-03-23T11:27:41;8.65;;;5.00;;
84371;SDS011;74561;50.380;7.626;2024-03-23T11:30:13;3.83;;;1.53;;
84371;SDS011;74561;50.380;7.626;2024-03-23T11:32:39;2.28;;;1.52;;
84371;SDS011;74561;50.380;7.626;2024-03-23T11:35:04;2.50;;;1.10;;
84371;SDS011;74561;50.380;7.626;2024-03-23T11:37:30;2.50;;;1.20;;
84371;SDS011;74561;50.380;7.626;2024-03-23T11:39:56;4.18;;;1.30;;
84371;SDS011;74561;50.380;7.626;2024-03-23T11:42:21;3.77;;;1.20;;
84371;SDS011;74561;50.380;7.626;2024-03-23T11:44:47;1.67;;;1.13;;
84371;SDS011;74561;50.380;7.626;2024-03-23T11:47:12;1.77;;;1.20;;
84371;SDS011;74561;50.380;7.626;2024-03-23T11:49:37;1.63;;;0.90;;
84371;SDS011;74561;50.380;7.626;2024-03-23T11:52:06;1.67;;;1.10;;
84371;SDS011;74561;50.380;7.626;2024-03-23T11:54:31;2.33;;;0.90;;
84371;SDS011;74561;50.380;7.626;2024-03-23T11:57:00;2.37;;;1.07;;
84371;SDS011;74561;50.380;7.626;2024-03-23T11:59:31;3.20;;;1.30;;
84371;SDS011;74561;50.380;7.626;2024-03-23T12:01:56;2.08;;;1.20;;
84371;SDS011;74561;50.380;7.626;2024-03-23T12:04:25;2.03;;;1.30;;
84371;SDS011;74561;50.380;7.626;2024-03-23T12:09:17;3.87;;;1.60;;
84371;SDS011;74561;50.380;7.626;2024-03-23T12:11:42;5.03;;;2.10;;
84371;SDS011;74561;50.380;7.626;2024-03-23T12:14:07;5.57;;;3.53;;
84371;SDS011;74561;50.380;7.626;2024-03-23T12:16:32;5.37;;;2.77;;
84371;SDS011;74561;50.380;7.626;2024-03-23T12:18:58;3.03;;;1.40;;
84371;SDS011;74561;50.380;7.626;2024-03-23T12:21:29;3.20;;;2.20;;
84371;SDS011;74561;50.380;7.626;2024-03-23T12:23:56;7.30;;;4.10;;
84371;SDS011;74561;50.380;7.626;2024-03-23T12:26:23;5.53;;;2.58;;
84371;SDS011;74561;50.380;7.626;2024-03-23T12:28:49;8.38;;;3.90;;
84371;SDS011;74561;50.380;7.626;2024-03-23T12:31:14;2.90;;;1.70;;
84371;SDS011;74561;50.380;7.626;2024-03-23T12:33:40;5.97;;;3.25;;
84371;SDS011;74561;50.380;7.626;2024-03-23T12:36:05;4.47;;;2.03;;
84371;SDS011;74561;50.380;7.626;2024-03-23T12:38:30;2.33;;;1.40;;
84371;SDS011;74561;50.380;7.626;2024-03-23T12:40:56;15.77;;;5.70;;
84371;SDS011;74561;50.380;7.626;2024-03-23T12:43:24;7.17;;;3.60;;
84371;SDS011;74561;50.380;7.626;2024-03-23T12:45:50;57.42;;;17.40;;
84371;SDS011;74561;50.380;7.626;2024-03-23T12:48:16;14.50;;;6.40;;
84371;SDS011;74561;50.380;7.626;2024-03-23T12:50:43;7.93;;;3.38;;
84371;SDS011;74561;50.380;7.626;2024-03-23T12:53:09;36.40;;;9.10;;
84371;SDS011;74561;50.380;7.626;2024-03-23T12:55:34;5.07;;;3.50;;
84371;SDS011;74561;50.380;7.626;2024-03-23T12:58:00;8.40;;;7.13;;
84371;SDS011;74561;50.380;7.626;2024-03-23T13:00:25;6.53;;;3.10;;
84371;SDS011;74561;50.380;7.626;2024-03-23T13:02:50;4.05;;;1.88;;
84371;SDS011;74561;50.380;7.626;2024-03-23T13:05:16;1.70;;;1.40;;
84371;SDS011;74561;50.380;7.626;2024-03-23T13:07:41;3.63;;;1.50;;
84371;SDS011;74561;50.380;7.626;2024-03-23T13:10:06;3.60;;;1.40;;
84371;SDS011;74561;50.380;7.626;2024-03-23T13:12:32;4.60;;;1.30;;
84371;SDS011;74561;50.380;7.626;2024-03-23T13:14:58;2.20;;;1.25;;
84371;SDS011;74561;50.380;7.626;2024-03-23T13:17:24;3.92;;;1.20;;
84371;SDS011;74561;50.380;7.626;2024-03-23T13:19:51;3.25;;;1.30;;
84371;SDS011;74561;50.380;7.626;2024-03-23T13:22:17;3.42;;;1.70;;
84371;SDS011;74561;50.380;7.626;2024-03-23T13:24:43;1.30;;;1.10;;
84371;SDS011;74561;50.380;7.626;2024-03-23T13:27:08;2.73;;;1.20;;
84371;SDS011;74561;50.380;7.626;2024-03-23T13:29:35;2.33;;;1.27;;
84371;SDS011;74561;50.380;7.626;2024-03-23T13:32:00;1.58;;;1.08;;
84371;SDS011;74561;50.380;7.626;2024-03-23T13:34:26;1.67;;;1.20;;
84371;SDS011;74561;50.380;7.626;2024-03-23T13:36:51;2.33;;;1.17;;
84371;SDS011;74561;50.380;7.626;2024-03-23T13:39:16;2.42;;;1.15;;
84371;SDS011;74561;50.380;7.626;2024-03-23T13:41:42;1.67;;;1.10;;
84371;SDS011;74561;50.380;7.626;2024-03-23T13:44:10;2.70;;;1.20;;
84371;SDS011;74561;50.380;7.626;2024-03-23T13:46:36;2.10;;;1.20;;
84371;SDS011;74561;50.380;7.626;2024-03-23T13:49:02;2.92;;;1.40;;
84371;SDS011;74561;50.380;7.626;2024-03-23T13:51:28;2.13;;;1.30;;
84371;SDS011;74561;50.380;7.626;2024-03-23T13:53:53;1.90;;;1.10;;
84371;SDS011;74561;50.380;7.626;2024-03-23T13:56:19;2.55;;;1.33;;
84371;SDS011;74561;50.380;7.626;2024-03-23T13:58:45;2.90;;;1.63;;
84371;SDS011;74561;50.380;7.626;2024-03-23T14:01:12;3.42;;;1.40;;
84371;SDS011;74561;50.380;7.626;2024-03-23T14:03:38;2.78;;;1.70;;
84371;SDS011;74561;50.380;7.626;2024-03-23T14:06:03;2.60;;;1.30;;
84371;SDS011;74561;50.380;7.626;2024-03-23T14:08:29;2.92;;;1.40;;
84371;SDS011;74561;50.380;7.626;2024-03-23T14:10:58;2.75;;;1.50;;
84371;SDS011;74561;50.380;7.626;2024-03-23T14:13:23;3.03;;;1.60;;
84371;SDS011;74561;50.380;7.626;2024-03-23T14:15:52;2.63;;;1.43;;
84371;SDS011;74561;50.380;7.626;2024-03-23T14:18:18;3.10;;;1.52;;
84371;SDS011;74561;50.380;7.626;2024-03-23T14:20:43;2.97;;;1.50;;
84371;SDS011;74561;50.380;7.626;2024-03-23T14:23:09;3.20;;;1.60;;
84371;SDS011;74561;50.380;7.626;2024-03-23T14:25:34;4.27;;;1.87;;
84371;SDS011;74561;50.380;7.626;2024-03-23T14:27:59;3.27;;;1.50;;
84371;SDS011;74561;50.380;7.626;2024-03-23T14:30:25;4.93;;;1.60;;
84371;SDS011;74561;50.380;7.626;2024-03-23T14:32:50;3.63;;;1.30;;
84371;SDS011;74561;50.380;7.626;2024-03-23T14:35:16;2.42;;;1.45;;
84371;SDS011;74561;50.380;7.626;2024-03-23T14:37:41;2.57;;;1.50;;
84371;SDS011;74561;50.380;7.626;2024-03-23T14:40:08;3.60;;;1.52;;
84371;SDS011;74561;50.380;7.626;2024-03-23T14:42:33;1.92;;;1.15;;
84371;SDS011;74561;50.380;7.626;2024-03-23T14:44:58;1.48;;;1.00;;
84371;SDS011;74561;50.380;7.626;2024-03-23T14:47:24;2.17;;;1.10;;
84371;SDS011;74561;50.380;7.626;2024-03-23T14:49:49;2.33;;;1.30;;
84371;SDS011;74561;50.380;7.626;2024-03-23T14:52:18;1.75;;;1.15;;
84371;SDS011;74561;50.380;7.626;2024-03-23T14:54:44;4.78;;;1.60;;
84371;SDS011;74561;50.380;7.626;2024-03-23T14:57:10;1.88;;;1.30;;
84371;SDS011;74561;50.380;7.626;2024-03-23T14:59:35;2.00;;;1.30;;
84371;SDS011;74561;50.380;7.626;2024-03-23T15:02:03;2.60;;;1.30;;
84371;SDS011;74561;50.380;7.626;2024-03-23T15:04:28;3.83;;;1.40;;
84371;SDS011;74561;50.380;7.626;2024-03-23T15:06:54;5.33;;;1.17;;
84371;SDS011;74561;50.380;7.626;2024-03-23T15:09:19;2.93;;;1.20;;
84371;SDS011;74561;50.380;7.626;2024-03-23T15:11:44;5.33;;;1.30;;
84371;SDS011;74561;50.380;7.626;2024-03-23T15:14:09;3.37;;;1.50;;
84371;SDS011;74561;50.380;7.626;2024-03-23T15:16:36;2.65;;;1.17;;
84371;SDS011;74561;50.380;7.626;2024-03-23T15:19:03;1.50;;;0.90;;
84371;SDS011;74561;50.380;7.626;2024-03-23T15:21:31;1.10;;;0.95;;
84371;SDS011;74561;50.380;7.626;2024-03-23T15:23:56;2.35;;;1.00;;
84371;SDS011;74561;50.380;7.626;2024-03-23T15:26:23;1.27;;;0.90;;
84371;SDS011;74561;50.380;7.626;2024-03-23T15:28:49;2.20;;;1.00;;
84371;SDS011;74561;50.380;7.626;2024-03-23T15:31:25;1.63;;;1.00;;
84371;SDS011;74561;50.380;7.626;2024-03-23T15:33:51;2.33;;;1.10;;
84371;SDS011;74561;50.380;7.626;2024-03-23T15:36:17;0.93;;;0.80;;
84371;SDS011;74561;50.380;7.626;2024-03-23T15:38:43;1.15;;;0.90;;
84371;SDS011;74561;50.380;7.626;2024-03-23T15:41:08;1.33;;;0.93;;
84371;SDS011;74561;50.380;7.626;2024-03-23T15:43:34;2.45;;;1.02;;
84371;SDS011;74561;50.380;7.626;2024-03-23T15:46:00;2.03;;;1.20;;
84371;SDS011;74561;50.380;7.626;2024-03-23T15:48:29;2.28;;;1.15;;
84371;SDS011;74561;50.380;7.626;2024-03-23T15:50:59;2.55;;;1.13;;